sensor_id;sensor_type;location;lat;lon;timestamp;temperature;humidity
65048;DHT22;52089;51.362;-2.384;2022-07-23T00:01:29;14.20;99.90
65048;DHT22;52089;51.362;-2.384;2022-07-23T00:05:11;14.30;99.90
65048;DHT22;52089;51.362;-2.384;2022-07-23T00:08:53;14.30;99.90
65048;DHT22;52089;51.362;-2.384;2022-07-23T00:12:35;14.20;99.90
65048;DHT22;52089;51.362;-2.384;2022-07-23T00:16:30;14.20;99.90
65048;DHT22;52089;51.362;-2.384;2022-07-23T00:20:12;14.20;99.90
65048;DHT22;52089;51.362;-2.384;2022-07-23T00:23:54;14.20;99.90
65048;DHT22;52089;51.362;-2.384;2022-07-23T00:27:36;14.20;99.90
65048;DHT22;52089;51.362;-2.384;2022-07-23T00:31:18;14.10;99.90
65048;DHT22;52089;51.362;-2.384;2022-07-23T00:35:00;14.10;99.90
65048;DHT22;52089;51.362;-2.384;2022-07-23T00:38:42;14.10;99.90
65048;DHT22;52089;51.362;-2.384;2022-07-23T00:42:23;14.10;99.90
65048;DHT22;52089;51.362;-2.384;2022-07-23T00:46:05;14.00;99.90
65048;DHT22;52089;51.362;-2.384;2022-07-23T00:49:47;14.00;99.90
65048;DHT22;52089;51.362;-2.384;2022-07-23T00:53:29;14.00;99.90
65048;DHT22;52089;51.362;-2.384;2022-07-23T00:57:13;13.90;99.90
65048;DHT22;52089;51.362;-2.384;2022-07-23T01:00:55;13.90;99.90
65048;DHT22;52089;51.362;-2.384;2022-07-23T01:04:37;13.90;99.90
65048;DHT22;52089;51.362;-2.384;2022-07-23T01:08:19;13.90;99.90
65048;DHT22;52089;51.362;-2.384;2022-07-23T01:12:03;13.80;99.90
65048;DHT22;52089;51.362;-2.384;2022-07-23T01:15:45;13.70;99.90
65048;DHT22;52089;51.362;-2.384;2022-07-23T01:19:27;13.70;99.90
65048;DHT22;52089;51.362;-2.384;2022-07-23T01:23:09;13.60;99.90
65048;DHT22;52089;51.362;-2.384;2022-07-23T01:26:51;13.60;99.90
65048;DHT22;52089;51.362;-2.384;2022-07-23T01:30:32;13.50;99.90
65048;DHT22;52089;51.362;-2.384;2022-07-23T01:34:14;13.40;99.90
65048;DHT22;52089;51.362;-2.384;2022-07-23T01:37:56;13.40;99.90
65048;DHT22;52089;51.362;-2.384;2022-07-23T01:41:38;13.30;99.90
65048;DHT22;52089;51.362;-2.384;2022-07-23T01:45:20;13.30;99.90
65048;DHT22;52089;51.362;-2.384;2022-07-23T01:49:02;13.20;99.90
65048;DHT22;52089;51.362;-2.384;2022-07-23T01:52:44;13.20;99.90
65048;DHT22;52089;51.362;-2.384;2022-07-23T01:56:26;13.10;99.90
65048;DHT22;52089;51.362;-2.384;2022-07-23T02:00:09;13.10;99.90
65048;DHT22;52089;51.362;-2.384;2022-07-23T02:03:51;13.00;99.90
65048;DHT22;52089;51.362;-2.384;2022-07-23T02:07:33;13.00;99.90
65048;DHT22;52089;51.362;-2.384;2022-07-23T02:11:15;12.90;99.90
65048;DHT22;52089;51.362;-2.384;2022-07-23T02:14:57;12.90;99.90
65048;DHT22;52089;51.362;-2.384;2022-07-23T02:18:39;12.80;99.90
65048;DHT22;52089;51.362;-2.384;2022-07-23T02:22:21;12.80;99.90
65048;DHT22;52089;51.362;-2.384;2022-07-23T02:26:03;12.70;99.90
65048;DHT22;52089;51.362;-2.384;2022-07-23T02:29:45;12.70;99.90
65048;DHT22;52089;51.362;-2.384;2022-07-23T02:33:26;12.60;99.90
65048;DHT22;52089;51.362;-2.384;2022-07-23T02:37:08;12.60;99.90
65048;DHT22;52089;51.362;-2.384;2022-07-23T02:40:50;12.60;99.90
65048;DHT22;52089;51.362;-2.384;2022-07-23T02:44:33;12.60;99.90
65048;DHT22;52089;51.362;-2.384;2022-07-23T02:48:15;12.60;99.90
65048;DHT22;52089;51.362;-2.384;2022-07-23T02:51:57;12.70;99.90
65048;DHT22;52089;51.362;-2.384;2022-07-23T02:55:38;12.60;99.90
65048;DHT22;52089;51.362;-2.384;2022-07-23T02:59:20;12.70;99.90
65048;DHT22;52089;51.362;-2.384;2022-07-23T03:03:02;12.70;99.90
65048;DHT22;52089;51.362;-2.384;2022-07-23T03:06:44;12.60;99.90
65048;DHT22;52089;51.362;-2.384;2022-07-23T03:10:26;12.70;99.90
65048;DHT22;52089;51.362;-2.384;2022-07-23T03:14:08;12.70;99.90
65048;DHT22;52089;51.362;-2.384;2022-07-23T03:17:50;12.70;99.90
65048;DHT22;52089;51.362;-2.384;2022-07-23T03:21:31;12.70;99.90
65048;DHT22;52089;51.362;-2.384;2022-07-23T03:25:13;12.80;99.90
65048;DHT22;52089;51.362;-2.384;2022-07-23T03:28:55;12.80;99.90
65048;DHT22;52089;51.362;-2.384;2022-07-23T03:32:37;12.70;99.90
65048;DHT22;52089;51.362;-2.384;2022-07-23T03:36:19;12.80;99.90
65048;DHT22;52089;51.362;-2.384;2022-07-23T03:40:03;12.80;99.90
65048;DHT22;52089;51.362;-2.384;2022-07-23T03:43:45;12.80;99.90
65048;DHT22;52089;51.362;-2.384;2022-07-23T03:47:26;12.80;99.90
65048;DHT22;52089;51.362;-2.384;2022-07-23T03:51:08;12.80;99.90
65048;DHT22;52089;51.362;-2.384;2022-07-23T03:54:50;12.80;99.90
65048;DHT22;52089;51.362;-2.384;2022-07-23T03:58:32;12.80;99.90
65048;DHT22;52089;51.362;-2.384;2022-07-23T04:02:14;12.80;99.90
65048;DHT22;52089;51.362;-2.384;2022-07-23T04:05:56;12.70;99.90
65048;DHT22;52089;51.362;-2.384;2022-07-23T04:09:38;12.70;99.90
65048;DHT22;52089;51.362;-2.384;2022-07-23T04:13:26;12.70;99.90
65048;DHT22;52089;51.362;-2.384;2022-07-23T04:17:08;12.70;99.90
65048;DHT22;52089;51.362;-2.384;2022-07-23T04:20:51;12.70;99.90
65048;DHT22;52089;51.362;-2.384;2022-07-23T04:24:33;12.70;99.90
65048;DHT22;52089;51.362;-2.384;2022-07-23T04:28:15;12.70;99.90
65048;DHT22;52089;51.362;-2.384;2022-07-23T04:31:57;12.60;99.90
65048;DHT22;52089;51.362;-2.384;2022-07-23T04:35:39;12.70;99.90
65048;DHT22;52089;51.362;-2.384;2022-07-23T04:39:21;12.70;99.90
65048;DHT22;52089;51.362;-2.384;2022-07-23T04:43:03;12.70;99.90
65048;DHT22;52089;51.362;-2.384;2022-07-23T04:46:45;12.80;99.90
65048;DHT22;52089;51.362;-2.384;2022-07-23T04:50:28;12.80;99.90
65048;DHT22;52089;51.362;-2.384;2022-07-23T04:54:09;12.80;99.90
65048;DHT22;52089;51.362;-2.384;2022-07-23T04:57:51;12.90;99.90
65048;DHT22;52089;51.362;-2.384;2022-07-23T05:01:33;13.00;99.90
65048;DHT22;52089;51.362;-2.384;2022-07-23T05:05:15;13.10;99.90
65048;DHT22;52089;51.362;-2.384;2022-07-23T05:08:57;13.20;99.90
65048;DHT22;52089;51.362;-2.384;2022-07-23T05:12:39;13.30;99.90
65048;DHT22;52089;51.362;-2.384;2022-07-23T05:16:21;13.40;99.90
65048;DHT22;52089;51.362;-2.384;2022-07-23T05:20:03;13.50;99.90
65048;DHT22;52089;51.362;-2.384;2022-07-23T05:23:45;13.60;99.90
65048;DHT22;52089;51.362;-2.384;2022-07-23T05:27:27;13.70;99.90
65048;DHT22;52089;51.362;-2.384;2022-07-23T05:31:09;13.90;99.90
65048;DHT22;52089;51.362;-2.384;2022-07-23T05:34:50;14.10;99.90
65048;DHT22;52089;51.362;-2.384;2022-07-23T05:38:33;14.30;99.90
65048;DHT22;52089;51.362;-2.384;2022-07-23T05:42:14;14.40;99.90
65048;DHT22;52089;51.362;-2.384;2022-07-23T05:45:56;14.50;99.90
65048;DHT22;52089;51.362;-2.384;2022-07-23T05:49:38;14.60;99.90
65048;DHT22;52089;51.362;-2.384;2022-07-23T05:53:20;14.70;99.90
65048;DHT22;52089;51.362;-2.384;2022-07-23T05:57:03;14.90;99.90
65048;DHT22;52089;51.362;-2.384;2022-07-23T06:00:45;14.90;99.90
65048;DHT22;52089;51.362;-2.384;2022-07-23T06:04:27;15.00;99.90
65048;DHT22;52089;51.362;-2.384;2022-07-23T06:08:09;15.10;99.90
65048;DHT22;52089;51.362;-2.384;2022-07-23T06:11:50;15.20;99.90
65048;DHT22;52089;51.362;-2.384;2022-07-23T06:15:32;15.10;99.90
65048;DHT22;52089;51.362;-2.384;2022-07-23T06:19:14;15.20;99.90
65048;DHT22;52089;51.362;-2.384;2022-07-23T06:22:56;15.20;99.90
65048;DHT22;52089;51.362;-2.384;2022-07-23T06:26:38;15.20;99.90
65048;DHT22;52089;51.362;-2.384;2022-07-23T06:30:20;15.20;99.90
65048;DHT22;52089;51.362;-2.384;2022-07-23T06:34:02;15.20;99.90
65048;DHT22;52089;51.362;-2.384;2022-07-23T06:37:44;15.20;99.90
65048;DHT22;52089;51.362;-2.384;2022-07-23T06:41:28;15.10;99.90
65048;DHT22;52089;51.362;-2.384;2022-07-23T06:45:10;15.20;99.90
65048;DHT22;52089;51.362;-2.384;2022-07-23T06:48:52;15.20;99.90
65048;DHT22;52089;51.362;-2.384;2022-07-23T06:52:34;15.20;99.90
65048;DHT22;52089;51.362;-2.384;2022-07-23T06:56:22;15.20;99.90
65048;DHT22;52089;51.362;-2.384;2022-07-23T07:00:05;15.30;99.90
65048;DHT22;52089;51.362;-2.384;2022-07-23T07:03:47;15.30;99.90
65048;DHT22;52089;51.362;-2.384;2022-07-23T07:07:29;15.40;99.90
65048;DHT22;52089;51.362;-2.384;2022-07-23T07:11:11;15.50;99.90
65048;DHT22;52089;51.362;-2.384;2022-07-23T07:14:53;15.60;99.90
65048;DHT22;52089;51.362;-2.384;2022-07-23T07:18:35;15.70;99.90
65048;DHT22;52089;51.362;-2.384;2022-07-23T07:22:17;15.80;99.90
65048;DHT22;52089;51.362;-2.384;2022-07-23T07:25:59;15.80;99.90
65048;DHT22;52089;51.362;-2.384;2022-07-23T07:29:41;16.00;99.90
65048;DHT22;52089;51.362;-2.384;2022-07-23T07:33:23;16.10;99.90
65048;DHT22;52089;51.362;-2.384;2022-07-23T07:37:04;16.30;99.90
65048;DHT22;52089;51.362;-2.384;2022-07-23T07:40:46;16.60;99.90
65048;DHT22;52089;51.362;-2.384;2022-07-23T07:44:29;16.90;99.90
65048;DHT22;52089;51.362;-2.384;2022-07-23T07:48:11;17.10;99.90
65048;DHT22;52089;51.362;-2.384;2022-07-23T07:51:53;17.20;99.90
65048;DHT22;52089;51.362;-2.384;2022-07-23T07:55:35;17.30;99.90
65048;DHT22;52089;51.362;-2.384;2022-07-23T07:59:18;17.30;99.90
65048;DHT22;52089;51.362;-2.384;2022-07-23T08:03:00;17.40;99.90
65048;DHT22;52089;51.362;-2.384;2022-07-23T08:06:44;17.40;99.90
65048;DHT22;52089;51.362;-2.384;2022-07-23T08:10:27;17.40;99.90
65048;DHT22;52089;51.362;-2.384;2022-07-23T08:14:09;17.50;99.90
65048;DHT22;52089;51.362;-2.384;2022-07-23T08:17:52;17.50;99.90
65048;DHT22;52089;51.362;-2.384;2022-07-23T08:21:34;17.60;99.90
65048;DHT22;52089;51.362;-2.384;2022-07-23T08:29:04;17.80;99.90
65048;DHT22;52089;51.362;-2.384;2022-07-23T08:36:35;19.10;99.90
65048;DHT22;52089;51.362;-2.384;2022-07-23T08:40:19;20.10;99.90
65048;DHT22;52089;51.362;-2.384;2022-07-23T08:44:01;20.90;99.90
65048;DHT22;52089;51.362;-2.384;2022-07-23T08:47:44;21.40;99.90
65048;DHT22;52089;51.362;-2.384;2022-07-23T08:51:32;22.00;99.90
65048;DHT22;52089;51.362;-2.384;2022-07-23T08:55:16;22.30;99.90
65048;DHT22;52089;51.362;-2.384;2022-07-23T08:59:00;22.30;99.90
65048;DHT22;52089;51.362;-2.384;2022-07-23T09:02:46;22.30;99.90
65048;DHT22;52089;51.362;-2.384;2022-07-23T09:06:32;22.30;99.90
65048;DHT22;52089;51.362;-2.384;2022-07-23T09:10:17;23.00;99.90
65048;DHT22;52089;51.362;-2.384;2022-07-23T09:13:59;23.50;99.90
65048;DHT22;52089;51.362;-2.384;2022-07-23T09:17:43;23.70;99.90
65048;DHT22;52089;51.362;-2.384;2022-07-23T09:25:18;23.30;99.90
65048;DHT22;52089;51.362;-2.384;2022-07-23T09:29:11;23.00;99.90
65048;DHT22;52089;51.362;-2.384;2022-07-23T09:33:09;22.70;99.90
65048;DHT22;52089;51.362;-2.384;2022-07-23T09:37:08;22.60;99.90
65048;DHT22;52089;51.362;-2.384;2022-07-23T09:41:10;22.70;99.90
65048;DHT22;52089;51.362;-2.384;2022-07-23T09:44:54;22.70;99.90
65048;DHT22;52089;51.362;-2.384;2022-07-23T09:48:36;22.60;99.90
65048;DHT22;52089;51.362;-2.384;2022-07-23T09:52:29;22.60;99.90
65048;DHT22;52089;51.362;-2.384;2022-07-23T09:56:17;22.50;99.90
65048;DHT22;52089;51.362;-2.384;2022-07-23T10:00:07;22.50;99.90
65048;DHT22;52089;51.362;-2.384;2022-07-23T10:03:50;22.40;99.90
65048;DHT22;52089;51.362;-2.384;2022-07-23T10:07:37;22.20;99.90
65048;DHT22;52089;51.362;-2.384;2022-07-23T10:11:19;22.20;99.90
65048;DHT22;52089;51.362;-2.384;2022-07-23T10:15:01;22.30;99.90
65048;DHT22;52089;51.362;-2.384;2022-07-23T10:18:43;22.50;99.90
65048;DHT22;52089;51.362;-2.384;2022-07-23T10:22:29;22.70;99.90
65048;DHT22;52089;51.362;-2.384;2022-07-23T10:26:34;23.20;99.90
65048;DHT22;52089;51.362;-2.384;2022-07-23T10:30:33;23.60;99.90
65048;DHT22;52089;51.362;-2.384;2022-07-23T10:38:30;24.20;99.90
65048;DHT22;52089;51.362;-2.384;2022-07-23T10:42:15;24.10;99.90
65048;DHT22;52089;51.362;-2.384;2022-07-23T10:46:53;24.00;99.90
65048;DHT22;52089;51.362;-2.384;2022-07-23T10:51:15;23.80;99.90
65048;DHT22;52089;51.362;-2.384;2022-07-23T10:59:05;23.20;99.90
65048;DHT22;52089;51.362;-2.384;2022-07-23T11:02:49;22.80;99.90
65048;DHT22;52089;51.362;-2.384;2022-07-23T11:22:37;22.00;99.90
65048;DHT22;52089;51.362;-2.384;2022-07-23T11:38:21;22.10;99.90
65048;DHT22;52089;51.362;-2.384;2022-07-23T11:42:05;22.10;99.90
65048;DHT22;52089;51.362;-2.384;2022-07-23T11:45:50;22.20;99.90
65048;DHT22;52089;51.362;-2.384;2022-07-23T11:49:33;22.50;99.90
65048;DHT22;52089;51.362;-2.384;2022-07-23T11:53:33;22.70;99.90
65048;DHT22;52089;51.362;-2.384;2022-07-23T11:57:15;22.90;99.90
65048;DHT22;52089;51.362;-2.384;2022-07-23T12:00:57;23.10;99.90
65048;DHT22;52089;51.362;-2.384;2022-07-23T12:04:42;23.10;99.90
65048;DHT22;52089;51.362;-2.384;2022-07-23T12:08:25;23.20;99.90
65048;DHT22;52089;51.362;-2.384;2022-07-23T12:12:07;23.30;99.90
65048;DHT22;52089;51.362;-2.384;2022-07-23T12:15:53;23.70;99.90
65048;DHT22;52089;51.362;-2.384;2022-07-23T12:19:36;24.00;99.90
65048;DHT22;52089;51.362;-2.384;2022-07-23T12:23:19;24.30;99.90
65048;DHT22;52089;51.362;-2.384;2022-07-23T12:27:12;24.50;99.90
65048;DHT22;52089;51.362;-2.384;2022-07-23T12:30:56;24.50;99.90
65048;DHT22;52089;51.362;-2.384;2022-07-23T12:34:39;24.50;99.90
65048;DHT22;52089;51.362;-2.384;2022-07-23T12:38:22;24.40;99.90
65048;DHT22;52089;51.362;-2.384;2022-07-23T12:42:11;24.10;99.90
65048;DHT22;52089;51.362;-2.384;2022-07-23T12:46:07;23.80;93.60
65048;DHT22;52089;51.362;-2.384;2022-07-23T12:49:50;23.50;99.90
65048;DHT22;52089;51.362;-2.384;2022-07-23T12:53:38;23.00;99.90
65048;DHT22;52089;51.362;-2.384;2022-07-23T12:57:44;22.60;99.90
65048;DHT22;52089;51.362;-2.384;2022-07-23T13:01:32;22.40;99.90
65048;DHT22;52089;51.362;-2.384;2022-07-23T13:05:14;22.30;99.90
65048;DHT22;52089;51.362;-2.384;2022-07-23T13:08:56;22.20;99.90
65048;DHT22;52089;51.362;-2.384;2022-07-23T13:12:38;22.30;99.90
65048;DHT22;52089;51.362;-2.384;2022-07-23T13:16:20;22.10;99.90
65048;DHT22;52089;51.362;-2.384;2022-07-23T13:20:02;22.10;99.90
65048;DHT22;52089;51.362;-2.384;2022-07-23T13:23:48;22.00;99.90
65048;DHT22;52089;51.362;-2.384;2022-07-23T13:27:30;21.90;99.90
65048;DHT22;52089;51.362;-2.384;2022-07-23T13:31:20;21.90;99.90
65048;DHT22;52089;51.362;-2.384;2022-07-23T13:35:03;21.90;99.90
65048;DHT22;52089;51.362;-2.384;2022-07-23T13:38:45;22.20;99.90
65048;DHT22;52089;51.362;-2.384;2022-07-23T13:42:27;22.60;99.90
65048;DHT22;52089;51.362;-2.384;2022-07-23T13:46:10;22.80;99.90
65048;DHT22;52089;51.362;-2.384;2022-07-23T13:49:52;22.90;99.90
65048;DHT22;52089;51.362;-2.384;2022-07-23T13:53:33;22.90;99.90
65048;DHT22;52089;51.362;-2.384;2022-07-23T13:57:15;23.00;99.90
65048;DHT22;52089;51.362;-2.384;2022-07-23T14:00:58;23.10;99.90
65048;DHT22;52089;51.362;-2.384;2022-07-23T14:04:40;23.30;99.90
65048;DHT22;52089;51.362;-2.384;2022-07-23T14:08:23;23.40;99.90
65048;DHT22;52089;51.362;-2.384;2022-07-23T14:12:05;23.50;99.90
65048;DHT22;52089;51.362;-2.384;2022-07-23T14:15:48;23.40;99.90
65048;DHT22;52089;51.362;-2.384;2022-07-23T14:19:31;23.30;99.90
65048;DHT22;52089;51.362;-2.384;2022-07-23T14:23:13;23.70;99.90
65048;DHT22;52089;51.362;-2.384;2022-07-23T14:26:55;23.80;99.90
65048;DHT22;52089;51.362;-2.384;2022-07-23T14:30:37;23.90;99.90
65048;DHT22;52089;51.362;-2.384;2022-07-23T14:34:19;24.60;99.90
65048;DHT22;52089;51.362;-2.384;2022-07-23T14:38:08;25.30;99.90
65048;DHT22;52089;51.362;-2.384;2022-07-23T14:41:54;25.30;99.90
65048;DHT22;52089;51.362;-2.384;2022-07-23T14:45:36;24.90;99.60
65048;DHT22;52089;51.362;-2.384;2022-07-23T14:49:18;24.50;99.10
65048;DHT22;52089;51.362;-2.384;2022-07-23T14:53:01;24.00;99.90
65048;DHT22;52089;51.362;-2.384;2022-07-23T14:56:45;23.80;99.90
65048;DHT22;52089;51.362;-2.384;2022-07-23T15:00:27;23.70;99.90
65048;DHT22;52089;51.362;-2.384;2022-07-23T15:04:10;23.20;97.60
65048;DHT22;52089;51.362;-2.384;2022-07-23T15:08:12;22.80;99.90
65048;DHT22;52089;51.362;-2.384;2022-07-23T15:11:55;22.60;99.90
65048;DHT22;52089;51.362;-2.384;2022-07-23T15:15:39;22.60;99.90
65048;DHT22;52089;51.362;-2.384;2022-07-23T15:19:21;22.70;99.90
65048;DHT22;52089;51.362;-2.384;2022-07-23T15:23:07;22.80;99.90
65048;DHT22;52089;51.362;-2.384;2022-07-23T15:26:51;22.80;99.90
65048;DHT22;52089;51.362;-2.384;2022-07-23T15:30:32;22.70;99.70
65048;DHT22;52089;51.362;-2.384;2022-07-23T15:34:14;22.40;99.90
65048;DHT22;52089;51.362;-2.384;2022-07-23T15:37:56;22.30;99.90
65048;DHT22;52089;51.362;-2.384;2022-07-23T15:41:39;22.40;99.90
65048;DHT22;52089;51.362;-2.384;2022-07-23T15:45:24;22.40;99.90
65048;DHT22;52089;51.362;-2.384;2022-07-23T15:49:06;22.40;99.90
65048;DHT22;52089;51.362;-2.384;2022-07-23T15:52:59;22.30;99.90
65048;DHT22;52089;51.362;-2.384;2022-07-23T15:56:43;22.10;99.90
65048;DHT22;52089;51.362;-2.384;2022-07-23T16:00:26;21.90;99.90
65048;DHT22;52089;51.362;-2.384;2022-07-23T16:04:08;21.80;99.90
65048;DHT22;52089;51.362;-2.384;2022-07-23T16:07:50;21.80;99.90
65048;DHT22;52089;51.362;-2.384;2022-07-23T16:11:32;21.70;98.80
65048;DHT22;52089;51.362;-2.384;2022-07-23T16:15:15;21.50;99.90
65048;DHT22;52089;51.362;-2.384;2022-07-23T16:18:57;21.50;99.90
65048;DHT22;52089;51.362;-2.384;2022-07-23T16:22:38;21.40;99.90
65048;DHT22;52089;51.362;-2.384;2022-07-23T16:26:20;21.30;99.90
65048;DHT22;52089;51.362;-2.384;2022-07-23T16:30:03;21.30;99.90
65048;DHT22;52089;51.362;-2.384;2022-07-23T16:33:45;21.30;99.90
65048;DHT22;52089;51.362;-2.384;2022-07-23T16:37:29;21.30;99.90
65048;DHT22;52089;51.362;-2.384;2022-07-23T16:41:11;21.20;99.90
65048;DHT22;52089;51.362;-2.384;2022-07-23T16:44:53;21.10;99.90
65048;DHT22;52089;51.362;-2.384;2022-07-23T16:48:36;21.10;99.90
65048;DHT22;52089;51.362;-2.384;2022-07-23T16:52:18;21.00;99.90
65048;DHT22;52089;51.362;-2.384;2022-07-23T16:56:01;20.90;99.90
65048;DHT22;52089;51.362;-2.384;2022-07-23T16:59:43;20.90;99.90
65048;DHT22;52089;51.362;-2.384;2022-07-23T17:03:25;20.90;99.90
65048;DHT22;52089;51.362;-2.384;2022-07-23T17:07:08;21.00;99.90
65048;DHT22;52089;51.362;-2.384;2022-07-23T17:10:50;21.10;99.90
65048;DHT22;52089;51.362;-2.384;2022-07-23T17:14:32;21.10;99.90
65048;DHT22;52089;51.362;-2.384;2022-07-23T17:18:14;21.30;99.90
65048;DHT22;52089;51.362;-2.384;2022-07-23T17:21:56;21.50;99.90
65048;DHT22;52089;51.362;-2.384;2022-07-23T17:25:38;21.60;99.90
65048;DHT22;52089;51.362;-2.384;2022-07-23T17:29:20;21.60;99.90
65048;DHT22;52089;51.362;-2.384;2022-07-23T17:33:02;21.50;99.90
65048;DHT22;52089;51.362;-2.384;2022-07-23T17:36:48;21.30;99.90
65048;DHT22;52089;51.362;-2.384;2022-07-23T17:40:30;20.90;99.90
65048;DHT22;52089;51.362;-2.384;2022-07-23T17:44:15;20.50;99.90
65048;DHT22;52089;51.362;-2.384;2022-07-23T17:47:57;20.20;99.90
65048;DHT22;52089;51.362;-2.384;2022-07-23T17:51:39;20.00;99.90
65048;DHT22;52089;51.362;-2.384;2022-07-23T17:55:22;19.90;99.90
65048;DHT22;52089;51.362;-2.384;2022-07-23T17:59:05;19.80;99.90
65048;DHT22;52089;51.362;-2.384;2022-07-23T18:02:47;19.70;99.90
65048;DHT22;52089;51.362;-2.384;2022-07-23T18:06:29;19.60;99.90
65048;DHT22;52089;51.362;-2.384;2022-07-23T18:10:11;19.70;99.90
65048;DHT22;52089;51.362;-2.384;2022-07-23T18:13:53;19.70;99.90
65048;DHT22;52089;51.362;-2.384;2022-07-23T18:17:36;19.70;99.90
65048;DHT22;52089;51.362;-2.384;2022-07-23T18:21:18;19.70;99.90
65048;DHT22;52089;51.362;-2.384;2022-07-23T18:25:00;19.70;99.90
65048;DHT22;52089;51.362;-2.384;2022-07-23T18:28:42;19.70;99.90
65048;DHT22;52089;51.362;-2.384;2022-07-23T18:32:24;19.70;99.90
65048;DHT22;52089;51.362;-2.384;2022-07-23T18:36:06;19.70;99.90
65048;DHT22;52089;51.362;-2.384;2022-07-23T18:39:48;19.70;99.90
65048;DHT22;52089;51.362;-2.384;2022-07-23T18:43:31;19.70;99.90
65048;DHT22;52089;51.362;-2.384;2022-07-23T18:47:14;19.60;99.90
65048;DHT22;52089;51.362;-2.384;2022-07-23T18:50:56;19.60;99.90
65048;DHT22;52089;51.362;-2.384;2022-07-23T18:54:38;19.60;99.90
65048;DHT22;52089;51.362;-2.384;2022-07-23T18:58:20;19.60;99.90
65048;DHT22;52089;51.362;-2.384;2022-07-23T19:02:03;19.60;99.90
65048;DHT22;52089;51.362;-2.384;2022-07-23T19:05:45;19.70;99.90
65048;DHT22;52089;51.362;-2.384;2022-07-23T19:09:27;19.70;99.90
65048;DHT22;52089;51.362;-2.384;2022-07-23T19:13:14;19.70;99.90
65048;DHT22;52089;51.362;-2.384;2022-07-23T19:16:56;19.70;99.90
65048;DHT22;52089;51.362;-2.384;2022-07-23T19:20:38;19.60;99.90
65048;DHT22;52089;51.362;-2.384;2022-07-23T19:24:25;19.60;99.90
65048;DHT22;52089;51.362;-2.384;2022-07-23T19:28:07;19.60;99.90
65048;DHT22;52089;51.362;-2.384;2022-07-23T19:31:49;19.50;99.90
65048;DHT22;52089;51.362;-2.384;2022-07-23T19:35:31;19.50;99.90
65048;DHT22;52089;51.362;-2.384;2022-07-23T19:39:13;19.40;99.90
65048;DHT22;52089;51.362;-2.384;2022-07-23T19:42:55;19.30;99.90
65048;DHT22;52089;51.362;-2.384;2022-07-23T19:46:37;19.30;99.90
65048;DHT22;52089;51.362;-2.384;2022-07-23T19:50:19;19.30;99.90
65048;DHT22;52089;51.362;-2.384;2022-07-23T19:54:01;19.20;99.90
65048;DHT22;52089;51.362;-2.384;2022-07-23T19:57:43;19.10;99.90
65048;DHT22;52089;51.362;-2.384;2022-07-23T20:01:25;19.00;99.90
65048;DHT22;52089;51.362;-2.384;2022-07-23T20:05:08;19.00;99.90
65048;DHT22;52089;51.362;-2.384;2022-07-23T20:08:50;18.90;99.90
65048;DHT22;52089;51.362;-2.384;2022-07-23T20:12:32;18.90;99.90
65048;DHT22;52089;51.362;-2.384;2022-07-23T20:16:15;18.80;99.90
65048;DHT22;52089;51.362;-2.384;2022-07-23T20:19:57;18.70;99.90
65048;DHT22;52089;51.362;-2.384;2022-07-23T20:23:39;18.40;99.90
65048;DHT22;52089;51.362;-2.384;2022-07-23T20:27:21;18.20;99.90
65048;DHT22;52089;51.362;-2.384;2022-07-23T20:31:03;18.10;99.90
65048;DHT22;52089;51.362;-2.384;2022-07-23T20:34:47;18.00;99.90
65048;DHT22;52089;51.362;-2.384;2022-07-23T20:38:29;17.90;99.90
65048;DHT22;52089;51.362;-2.384;2022-07-23T20:42:12;17.80;99.90
65048;DHT22;52089;51.362;-2.384;2022-07-23T20:45:54;17.80;99.90
65048;DHT22;52089;51.362;-2.384;2022-07-23T20:49:36;17.70;99.90
65048;DHT22;52089;51.362;-2.384;2022-07-23T20:53:18;17.70;99.90
65048;DHT22;52089;51.362;-2.384;2022-07-23T20:57:00;17.70;99.90
65048;DHT22;52089;51.362;-2.384;2022-07-23T21:00:42;17.70;99.90
65048;DHT22;52089;51.362;-2.384;2022-07-23T21:04:24;17.60;99.90
65048;DHT22;52089;51.362;-2.384;2022-07-23T21:08:06;17.60;99.90
65048;DHT22;52089;51.362;-2.384;2022-07-23T21:11:47;17.60;99.90
65048;DHT22;52089;51.362;-2.384;2022-07-23T21:15:29;17.50;99.90
65048;DHT22;52089;51.362;-2.384;2022-07-23T21:19:11;17.50;99.90
65048;DHT22;52089;51.362;-2.384;2022-07-23T21:22:53;17.50;99.90
65048;DHT22;52089;51.362;-2.384;2022-07-23T21:26:35;17.50;99.90
65048;DHT22;52089;51.362;-2.384;2022-07-23T21:30:17;17.40;99.90
65048;DHT22;52089;51.362;-2.384;2022-07-23T21:33:59;17.50;99.90
65048;DHT22;52089;51.362;-2.384;2022-07-23T21:37:41;17.40;99.90
65048;DHT22;52089;51.362;-2.384;2022-07-23T21:41:22;17.40;99.90
65048;DHT22;52089;51.362;-2.384;2022-07-23T21:45:10;17.40;99.90
65048;DHT22;52089;51.362;-2.384;2022-07-23T21:48:52;17.40;99.90
65048;DHT22;52089;51.362;-2.384;2022-07-23T21:52:34;17.50;99.90
65048;DHT22;52089;51.362;-2.384;2022-07-23T21:56:16;17.40;99.90
65048;DHT22;52089;51.362;-2.384;2022-07-23T21:59:57;17.40;99.90
65048;DHT22;52089;51.362;-2.384;2022-07-23T22:03:39;17.50;99.90
65048;DHT22;52089;51.362;-2.384;2022-07-23T22:07:21;17.50;99.90
65048;DHT22;52089;51.362;-2.384;2022-07-23T22:11:03;17.60;99.90
65048;DHT22;52089;51.362;-2.384;2022-07-23T22:14:45;17.60;99.90
65048;DHT22;52089;51.362;-2.384;2022-07-23T22:18:27;17.60;99.90
65048;DHT22;52089;51.362;-2.384;2022-07-23T22:22:09;17.60;99.90
65048;DHT22;52089;51.362;-2.384;2022-07-23T22:25:51;17.70;99.90
65048;DHT22;52089;51.362;-2.384;2022-07-23T22:29:33;17.60;99.90
65048;DHT22;52089;51.362;-2.384;2022-07-23T22:33:15;17.60;99.90
65048;DHT22;52089;51.362;-2.384;2022-07-23T22:36:57;17.70;99.90
65048;DHT22;52089;51.362;-2.384;2022-07-23T22:40:39;17.70;99.90
65048;DHT22;52089;51.362;-2.384;2022-07-23T22:44:21;17.70;99.90
65048;DHT22;52089;51.362;-2.384;2022-07-23T22:48:03;17.70;99.90
65048;DHT22;52089;51.362;-2.384;2022-07-23T22:51:47;17.70;99.90
65048;DHT22;52089;51.362;-2.384;2022-07-23T22:55:32;17.70;99.90
65048;DHT22;52089;51.362;-2.384;2022-07-23T22:59:17;17.70;99.90
65048;DHT22;52089;51.362;-2.384;2022-07-23T23:03:10;17.70;99.90
65048;DHT22;52089;51.362;-2.384;2022-07-23T23:06:53;17.80;99.90
65048;DHT22;52089;51.362;-2.384;2022-07-23T23:10:35;17.80;99.90
65048;DHT22;52089;51.362;-2.384;2022-07-23T23:14:17;17.80;99.90
65048;DHT22;52089;51.362;-2.384;2022-07-23T23:17:59;17.80;99.90
65048;DHT22;52089;51.362;-2.384;2022-07-23T23:21:41;17.80;99.90
65048;DHT22;52089;51.362;-2.384;2022-07-23T23:25:23;17.80;99.90
65048;DHT22;52089;51.362;-2.384;2022-07-23T23:29:05;17.90;99.90
65048;DHT22;52089;51.362;-2.384;2022-07-23T23:32:47;17.80;99.90
65048;DHT22;52089;51.362;-2.384;2022-07-23T23:36:29;17.80;99.90
65048;DHT22;52089;51.362;-2.384;2022-07-23T23:40:11;17.80;99.90
65048;DHT22;52089;51.362;-2.384;2022-07-23T23:43:53;17.80;99.90
65048;DHT22;52089;51.362;-2.384;2022-07-23T23:47:35;17.80;99.90
65048;DHT22;52089;51.362;-2.384;2022-07-23T23:51:17;17.80;99.90
65048;DHT22;52089;51.362;-2.384;2022-07-23T23:54:59;17.80;99.90